CPX225 Details

Departure: Ted Stevens Anchorage International Airport (PANC) at 0000 UTC
Arrival: Los Angeles International Airport (KLAX) at 0425 UTC
Route: MDO B453 KURTT B453 KYLLE B453 BOXER ENI OAK TILLT HUULL HUULL2


Current Weather Information
PANC 250953Z 17004KT 10SM FEW070 07/05 A3015 RMK AO2 SLP210 T00720050
KLAX 250953Z 28004KT 10SM FEW010 FEW020 14/12 A2989 RMK AO2 SLP120 T01440122